createdAt,value
2019-06-26T00:00:39.566Z,0.00
2019-06-26T00:01:39.661Z,0.00
2019-06-26T00:02:39.765Z,0.00
2019-06-26T00:03:39.860Z,0.00
2019-06-26T00:04:39.964Z,0.00
2019-06-26T00:05:40.086Z,0.00
2019-06-26T00:06:40.158Z,0.00
2019-06-26T00:07:40.261Z,0.00
2019-06-26T00:08:40.362Z,0.00
2019-06-26T00:09:40.461Z,0.00
2019-06-26T00:10:40.556Z,0.00
2019-06-26T00:11:40.664Z,0.00
2019-06-26T00:12:40.762Z,0.00
2019-06-26T00:13:40.861Z,0.00
2019-06-26T00:14:40.967Z,0.00
2019-06-26T00:15:41.060Z,0.00
2019-06-26T00:16:41.154Z,0.00
2019-06-26T00:17:41.267Z,0.00
2019-06-26T00:18:41.362Z,0.00
2019-06-26T00:19:41.459Z,0.00
2019-06-26T00:20:41.567Z,0.00
2019-06-26T00:21:41.683Z,0.00
2019-06-26T00:22:41.765Z,0.00
2019-06-26T00:23:41.864Z,0.00
2019-06-26T00:24:41.971Z,0.00
2019-06-26T00:25:42.074Z,0.00
2019-06-26T00:26:42.173Z,0.00
2019-06-26T00:27:42.283Z,0.00
2019-06-26T00:28:42.379Z,0.00
2019-06-26T00:29:42.475Z,0.00
2019-06-26T00:30:42.594Z,0.00
2019-06-26T00:31:42.688Z,0.00
2019-06-26T00:32:42.804Z,0.00
2019-06-26T00:33:43.037Z,0.00
2019-06-26T00:34:43.006Z,0.00
2019-06-26T00:35:43.107Z,0.00
2019-06-26T00:36:43.218Z,0.00
2019-06-26T00:37:43.320Z,0.00
2019-06-26T00:38:43.418Z,0.00
2019-06-26T00:39:43.521Z,0.00
2019-06-26T00:40:43.618Z,0.00
2019-06-26T00:41:43.733Z,0.00
2019-06-26T00:42:43.825Z,0.00
2019-06-26T00:43:43.923Z,0.00
2019-06-26T00:44:44.042Z,0.00
2019-06-26T00:45:44.125Z,0.00
2019-06-26T00:46:44.221Z,0.00
2019-06-26T00:47:44.333Z,0.00
2019-06-26T00:48:44.438Z,0.00
2019-06-26T00:49:44.561Z,0.00
2019-06-26T00:50:44.655Z,0.00
2019-06-26T00:51:44.759Z,0.00
2019-06-26T00:52:44.857Z,0.00
2019-06-26T00:53:44.961Z,0.00
2019-06-26T00:54:45.658Z,0.00
2019-06-26T00:55:45.134Z,0.00
2019-06-26T00:56:45.235Z,0.00
2019-06-26T00:57:45.328Z,0.00
2019-06-26T00:58:45.435Z,0.00
2019-06-26T00:59:45.536Z,0.00
2019-06-26T01:00:45.646Z,0.00
2019-06-26T01:01:45.760Z,0.00
2019-06-26T01:02:45.869Z,0.00
2019-06-26T01:03:45.963Z,0.00
2019-06-26T01:04:46.061Z,0.00
2019-06-26T01:05:46.166Z,0.00
2019-06-26T01:06:46.269Z,0.00
2019-06-26T01:07:46.367Z,0.00
2019-06-26T01:08:46.465Z,0.00
2019-06-26T01:09:46.559Z,0.00
2019-06-26T01:10:46.665Z,0.00
2019-06-26T01:11:46.772Z,0.00
2019-06-26T01:12:46.857Z,0.00
2019-06-26T01:13:57.686Z,0.00
2019-06-26T01:14:47.072Z,0.00
2019-06-26T01:15:47.166Z,0.00
2019-06-26T01:16:47.266Z,0.00
2019-06-26T01:17:47.391Z,0.00
2019-06-26T01:18:47.474Z,0.00
2019-06-26T01:19:47.573Z,0.00
2019-06-26T01:20:47.673Z,0.00
2019-06-26T01:21:47.774Z,0.00
2019-06-26T01:22:47.890Z,0.00
2019-06-26T01:23:47.988Z,0.00
2019-06-26T01:24:48.086Z,0.00
2019-06-26T01:25:48.185Z,0.00
2019-06-26T01:26:48.292Z,0.00
2019-06-26T01:27:48.374Z,0.00
2019-06-26T01:28:48.503Z,0.00
2019-06-26T01:29:48.574Z,0.00
2019-06-26T01:30:48.670Z,0.00
2019-06-26T01:31:48.775Z,0.00
2019-06-26T01:32:48.876Z,0.00
2019-06-26T01:33:48.977Z,0.00
2019-06-26T01:34:49.091Z,0.00
2019-06-26T01:35:49.179Z,0.00
2019-06-26T01:36:49.273Z,0.00
2019-06-26T01:37:49.371Z,0.00
2019-06-26T01:38:49.480Z,0.00
2019-06-26T01:39:49.578Z,0.00
2019-06-26T01:40:49.680Z,0.00
2019-06-26T01:41:49.800Z,0.00
2019-06-26T01:42:49.880Z,0.00
2019-06-26T01:43:49.985Z,0.00
2019-06-26T01:44:50.093Z,0.00
2019-06-26T01:45:50.193Z,0.00
2019-06-26T01:46:50.290Z,0.00
2019-06-26T01:47:50.394Z,0.00
2019-06-26T01:48:50.485Z,0.00
2019-06-26T01:49:50.585Z,0.00
2019-06-26T01:50:50.682Z,0.00
2019-06-26T01:51:50.779Z,0.00
2019-06-26T01:52:50.883Z,0.00
2019-06-26T01:53:50.985Z,0.00
2019-06-26T01:54:51.082Z,0.00
2019-06-26T01:55:51.188Z,0.00
2019-06-26T01:56:51.283Z,0.00
2019-06-26T01:57:51.386Z,0.00
2019-06-26T01:58:51.480Z,0.00
2019-06-26T01:59:51.582Z,0.00
2019-06-26T02:00:51.684Z,0.00
2019-06-26T02:01:51.797Z,0.00
2019-06-26T02:02:51.897Z,0.00
2019-06-26T02:03:51.990Z,0.00
2019-06-26T02:04:52.087Z,0.00
2019-06-26T02:05:52.196Z,0.00
2019-06-26T02:06:52.294Z,0.00
2019-06-26T02:07:52.394Z,0.00
2019-06-26T02:08:52.498Z,0.00
2019-06-26T02:09:52.598Z,0.00
2019-06-26T02:10:52.697Z,0.00
2019-06-26T02:11:52.895Z,0.00
2019-06-26T02:12:52.897Z,0.00
2019-06-26T02:13:52.999Z,0.00
2019-06-26T02:14:53.100Z,0.00
2019-06-26T02:15:53.200Z,0.00
2019-06-26T02:16:53.295Z,0.00
2019-06-26T02:17:53.398Z,0.00
2019-06-26T02:18:53.508Z,0.00
2019-06-26T02:19:53.595Z,0.00
2019-06-26T02:20:53.693Z,4.00
2019-06-26T02:21:53.797Z,0.00
2019-06-26T02:22:53.887Z,4.00
2019-06-26T02:23:53.991Z,4.00
2019-06-26T02:24:54.110Z,4.00
2019-06-26T02:25:54.212Z,4.00
2019-06-26T02:26:54.316Z,4.00
2019-06-26T02:27:54.412Z,4.00
2019-06-26T02:28:54.513Z,4.00
2019-06-26T02:29:54.610Z,4.00
2019-06-26T02:30:54.713Z,4.00
2019-06-26T02:31:54.829Z,4.00
2019-06-26T02:32:54.930Z,4.00
2019-06-26T02:33:55.029Z,4.00
2019-06-26T02:34:55.126Z,8.00
2019-06-26T02:35:55.225Z,4.00
2019-06-26T02:36:55.339Z,8.00
2019-06-26T02:37:55.434Z,8.00
2019-06-26T02:38:55.541Z,8.00
2019-06-26T02:39:55.645Z,8.00
2019-06-26T02:40:55.740Z,8.00
2019-06-26T02:41:55.843Z,12.00
2019-06-26T02:42:55.936Z,12.00
2019-06-26T02:43:56.040Z,12.00
2019-06-26T02:44:56.137Z,16.00
2019-06-26T02:45:56.256Z,16.00
2019-06-26T02:47:17.260Z,20.00
2019-06-26T02:47:56.464Z,20.00
2019-06-26T02:48:56.568Z,24.00
2019-06-26T02:49:56.660Z,28.00
2019-06-26T02:50:56.769Z,28.00
2019-06-26T02:51:56.847Z,32.00
2019-06-26T02:52:56.968Z,36.00
2019-06-26T02:53:57.065Z,44.00
2019-06-26T02:54:57.162Z,44.00
2019-06-26T02:55:57.332Z,52.00
2019-06-26T02:56:57.363Z,56.00
2019-06-26T02:57:57.461Z,64.00
2019-06-26T02:58:57.568Z,72.00
2019-06-26T02:59:57.692Z,76.00
2019-06-26T03:00:57.796Z,80.00
2019-06-26T03:01:57.896Z,88.00
2019-06-26T03:02:58.030Z,96.00
2019-06-26T03:03:58.102Z,104.00
2019-06-26T03:04:58.204Z,112.00
2019-06-26T03:05:58.309Z,124.00
2019-06-26T03:06:58.403Z,132.00
2019-06-26T03:07:58.501Z,144.00
2019-06-26T03:08:58.654Z,156.00
2019-06-26T03:09:58.750Z,168.00
2019-06-26T03:10:58.821Z,184.00
2019-06-26T03:11:58.920Z,196.00
2019-06-26T03:12:59.025Z,212.00
2019-06-26T03:13:59.115Z,228.00
2019-06-26T03:15:08.852Z,248.00
2019-06-26T03:15:59.314Z,264.00
2019-06-26T03:16:59.420Z,284.00
2019-06-26T03:17:59.519Z,300.00
2019-06-26T03:18:59.615Z,320.00
2019-06-26T03:19:59.754Z,336.00
2019-06-26T03:20:59.818Z,352.00
2019-06-26T03:21:59.915Z,372.00
2019-06-26T03:23:00.013Z,392.00
2019-06-26T03:24:00.107Z,412.00
2019-06-26T03:25:00.208Z,432.00
2019-06-26T03:26:00.300Z,456.00
2019-06-26T03:27:00.403Z,476.00
2019-06-26T03:28:00.500Z,500.00
2019-06-26T03:29:00.606Z,520.00
2019-06-26T03:30:00.713Z,544.00
2019-06-26T03:31:00.815Z,568.00
2019-06-26T03:32:00.907Z,592.00
2019-06-26T03:33:01.008Z,616.00
2019-06-26T03:34:01.109Z,640.00
2019-06-26T03:35:01.204Z,664.00
2019-06-26T03:36:01.302Z,692.00
2019-06-26T03:37:01.427Z,716.00
2019-06-26T03:38:01.534Z,748.00
2019-06-26T03:39:01.631Z,784.00
2019-06-26T03:40:01.881Z,816.00
2019-06-26T03:41:01.831Z,852.00
2019-06-26T03:42:01.935Z,884.00
2019-06-26T03:43:02.043Z,912.00
2019-06-26T03:44:02.167Z,944.00
2019-06-26T03:45:02.235Z,976.00
2019-06-26T03:46:02.335Z,1008.00
2019-06-26T03:47:02.435Z,1040.00
2019-06-26T03:48:02.536Z,1076.00
2019-06-26T03:49:02.631Z,1104.00
2019-06-26T03:50:02.905Z,1136.00
2019-06-26T03:51:02.835Z,1172.00
2019-06-26T03:52:02.950Z,1200.00
2019-06-26T03:53:03.030Z,1236.00
2019-06-26T03:54:03.126Z,1268.00
2019-06-26T03:55:03.241Z,1300.00
2019-06-26T03:56:03.316Z,1332.00
2019-06-26T03:57:03.434Z,1372.00
2019-06-26T03:58:03.521Z,1400.00
2019-06-26T03:59:03.619Z,1436.00
2019-06-26T04:00:03.731Z,1484.00
2019-06-26T04:01:03.816Z,1500.00
2019-06-26T04:02:03.914Z,1540.00
2019-06-26T04:03:04.014Z,1572.00
2019-06-26T04:04:04.116Z,1608.00
2019-06-26T04:05:04.227Z,1640.00
2019-06-26T04:06:04.311Z,1672.00
2019-06-26T04:07:04.422Z,1708.00
2019-06-26T04:08:04.575Z,1744.00
2019-06-26T04:09:04.618Z,1776.00
2019-06-26T04:10:04.715Z,1812.00
2019-06-26T04:11:04.809Z,1844.00
2019-06-26T04:12:04.905Z,1880.00
2019-06-26T04:13:05.004Z,1912.00
2019-06-26T04:14:05.105Z,1948.00
2019-06-26T04:15:05.204Z,1980.00
2019-06-26T04:16:05.303Z,2008.00
2019-06-26T04:17:05.407Z,2056.00
2019-06-26T04:18:05.506Z,2084.00
2019-06-26T04:19:05.601Z,2116.00
2019-06-26T04:20:05.756Z,2148.00
2019-06-26T04:21:05.798Z,2184.00
2019-06-26T04:22:05.893Z,2220.00
2019-06-26T04:23:05.992Z,2252.00
2019-06-26T04:24:06.093Z,2288.00
2019-06-26T04:25:06.195Z,2320.00
2019-06-26T04:26:06.290Z,2352.00
2019-06-26T04:27:06.391Z,2392.00
2019-06-26T04:28:06.612Z,2436.00
2019-06-26T04:29:06.595Z,2460.00
2019-06-26T04:30:06.684Z,2500.00
2019-06-26T04:31:06.782Z,2540.00
2019-06-26T04:32:06.881Z,2576.00
2019-06-26T04:33:06.990Z,2616.00
2019-06-26T04:34:07.085Z,2656.00
2019-06-26T04:35:07.180Z,2704.00
2019-06-26T04:36:07.282Z,2764.00
2019-06-26T04:37:07.378Z,2808.00
2019-06-26T04:38:07.477Z,2836.00
2019-06-26T04:39:07.575Z,2880.00
2019-06-26T04:40:07.677Z,2920.00
2019-06-26T04:41:07.776Z,2960.00
2019-06-26T04:42:07.874Z,3000.00
2019-06-26T04:43:07.994Z,3044.00
2019-06-26T04:44:08.093Z,3096.00
2019-06-26T04:45:08.190Z,3136.00
2019-06-26T04:46:08.325Z,3196.00
2019-06-26T04:47:08.394Z,3256.00
2019-06-26T04:48:08.488Z,3324.00
2019-06-26T04:49:08.588Z,3392.00
2019-06-26T04:50:08.696Z,3464.00
2019-06-26T04:51:08.795Z,3520.00
2019-06-26T04:52:08.895Z,3580.00
2019-06-26T04:53:09.009Z,3648.00
2019-06-26T04:54:09.095Z,3700.00
2019-06-26T04:55:09.193Z,3752.00
2019-06-26T04:56:09.291Z,3800.00
2019-06-26T04:57:09.418Z,3856.00
2019-06-26T04:58:09.506Z,3876.00
2019-06-26T04:59:09.610Z,3904.00
2019-06-26T05:00:09.707Z,3916.00
2019-06-26T05:01:09.810Z,3928.00
2019-06-26T05:02:09.905Z,3904.00
2019-06-26T05:03:10.081Z,3840.00
2019-06-26T05:04:10.124Z,3708.00
2019-06-26T05:05:10.227Z,3524.00
2019-06-26T05:06:10.324Z,3388.00
2019-06-26T05:07:10.428Z,3412.00
2019-06-26T05:08:10.571Z,3396.00
2019-06-26T05:09:10.671Z,3352.00
2019-06-26T05:10:10.769Z,3264.00
2019-06-26T05:11:12.857Z,3300.00
2019-06-26T05:12:10.988Z,3428.00
2019-06-26T05:13:11.065Z,3552.00
2019-06-26T05:14:11.159Z,3552.00
2019-06-26T05:15:11.270Z,3384.00
2019-06-26T05:16:15.657Z,3376.00
2019-06-26T05:17:11.460Z,3748.00
2019-06-26T05:18:11.552Z,4292.00
2019-06-26T05:19:11.659Z,4468.00
2019-06-26T05:20:11.756Z,4372.00
2019-06-26T05:21:11.856Z,4244.00
2019-06-26T05:22:11.954Z,4344.00
2019-06-26T05:23:12.057Z,4820.00
2019-06-26T05:24:12.158Z,17632.00
2019-06-26T05:25:12.267Z,36128.00
2019-06-26T05:26:12.385Z,38048.00
2019-06-26T05:27:12.482Z,34720.00
2019-06-26T05:28:12.582Z,29856.00
2019-06-26T05:29:12.675Z,25504.00
2019-06-26T05:30:12.803Z,22944.00
2019-06-26T05:31:12.877Z,23680.00
2019-06-26T05:32:12.978Z,26432.00
2019-06-26T05:33:13.095Z,29408.00
2019-06-26T05:34:13.198Z,31648.00
2019-06-26T05:35:13.307Z,31744.00
2019-06-26T05:36:13.410Z,31040.00
2019-06-26T05:37:13.506Z,30688.00
2019-06-26T05:38:13.675Z,30592.00
2019-06-26T05:39:13.700Z,30624.00
2019-06-26T05:40:13.802Z,31200.00
2019-06-26T05:41:13.913Z,31936.00
2019-06-26T05:42:14.024Z,32544.00
2019-06-26T05:43:14.143Z,33760.00
2019-06-26T05:44:14.235Z,35136.00
2019-06-26T05:45:14.363Z,35200.00
2019-06-26T05:46:29.711Z,34816.00
2019-06-26T05:47:14.541Z,34848.00
2019-06-26T05:48:14.645Z,35104.00
2019-06-26T05:49:14.749Z,35808.00
2019-06-26T05:50:14.861Z,37216.00
2019-06-26T05:51:14.963Z,38240.00
2019-06-26T05:52:16.722Z,38656.00
2019-06-26T05:53:15.177Z,38432.00
2019-06-26T05:54:15.296Z,37824.00
2019-06-26T05:55:15.419Z,36896.00
2019-06-26T05:56:15.510Z,36224.00
2019-06-26T05:57:15.639Z,36320.00
2019-06-26T05:58:15.729Z,36448.00
2019-06-26T05:59:15.849Z,36640.00
2019-06-26T06:00:15.958Z,35936.00
2019-06-26T06:01:16.082Z,35456.00
2019-06-26T06:02:16.164Z,35136.00
2019-06-26T06:03:16.287Z,35136.00
2019-06-26T06:04:16.380Z,35136.00
2019-06-26T06:05:16.488Z,34560.00
2019-06-26T06:06:16.595Z,34240.00
2019-06-26T06:07:16.706Z,34592.00
2019-06-26T06:08:16.815Z,35488.00
2019-06-26T06:09:16.927Z,36928.00
2019-06-26T06:10:17.084Z,37888.00
2019-06-26T06:11:17.154Z,36768.00
2019-06-26T06:12:17.260Z,35232.00
2019-06-26T06:13:17.373Z,32960.00
2019-06-26T06:14:17.478Z,30912.00
2019-06-26T06:15:17.588Z,29120.00
2019-06-26T06:16:17.698Z,27680.00
2019-06-26T06:17:17.807Z,16128.00
2019-06-26T06:18:17.913Z,6440.00
2019-06-26T06:19:18.024Z,6188.00
2019-06-26T06:20:18.133Z,6124.00
2019-06-26T06:21:18.267Z,6092.00
2019-06-26T06:22:18.351Z,6028.00
2019-06-26T06:23:18.470Z,5976.00
2019-06-26T06:24:18.587Z,5972.00
2019-06-26T06:25:18.684Z,5928.00
2019-06-26T06:26:18.793Z,5900.00
2019-06-26T06:27:18.901Z,5868.00
2019-06-26T06:28:19.008Z,5840.00
2019-06-26T06:29:19.126Z,5828.00
2019-06-26T06:30:19.223Z,5808.00
2019-06-26T06:31:19.332Z,5788.00
2019-06-26T06:32:19.427Z,5780.00
2019-06-26T06:33:19.551Z,5764.00
2019-06-26T06:34:19.656Z,5752.00
2019-06-26T06:35:19.765Z,5740.00
2019-06-26T06:36:19.875Z,5736.00
2019-06-26T06:37:19.975Z,5724.00
2019-06-26T06:38:20.085Z,5712.00
2019-06-26T06:39:20.191Z,5708.00
2019-06-26T06:40:20.301Z,5696.00
2019-06-26T06:41:20.405Z,5784.00
2019-06-26T06:42:20.522Z,5676.00
2019-06-26T06:43:20.631Z,5668.00
2019-06-26T06:44:20.739Z,5604.00
2019-06-26T06:45:20.866Z,5636.00
2019-06-26T06:46:20.957Z,5636.00
2019-06-26T06:47:21.072Z,5644.00
2019-06-26T06:48:21.176Z,5636.00
2019-06-26T06:49:21.282Z,5612.00
2019-06-26T06:50:21.391Z,5600.00
2019-06-26T06:51:21.503Z,5632.00
2019-06-26T06:52:21.608Z,5716.00
2019-06-26T06:53:21.784Z,5628.00
2019-06-26T06:54:21.829Z,5780.00
2019-06-26T06:55:21.939Z,5632.00
2019-06-26T06:56:22.046Z,5608.00
2019-06-26T06:57:22.153Z,5604.00
2019-06-26T06:58:22.257Z,5592.00
2019-06-26T06:59:22.364Z,5588.00
2019-06-26T07:00:22.473Z,5588.00
2019-06-26T07:01:22.585Z,5516.00
2019-06-26T07:02:22.694Z,5576.00
2019-06-26T07:03:22.803Z,5608.00
2019-06-26T07:04:22.915Z,5584.00
2019-06-26T07:05:23.023Z,5584.00
2019-06-26T07:06:23.130Z,5584.00
2019-06-26T07:07:23.238Z,5588.00
2019-06-26T07:08:23.426Z,5896.00
2019-06-26T07:09:23.507Z,5584.00
2019-06-26T07:10:23.588Z,5576.00
2019-06-26T07:11:23.691Z,5580.00
2019-06-26T07:12:23.793Z,5588.00
2019-06-26T07:13:23.907Z,5568.00
2019-06-26T07:14:24.010Z,5580.00
2019-06-26T07:15:24.116Z,5576.00
2019-06-26T07:16:24.222Z,5568.00
2019-06-26T07:17:24.337Z,5572.00
2019-06-26T07:18:24.441Z,5568.00
2019-06-26T07:19:24.553Z,5568.00
2019-06-26T07:20:24.684Z,5560.00
2019-06-26T07:21:24.767Z,5560.00
2019-06-26T07:22:24.878Z,5572.00
2019-06-26T07:23:24.990Z,5556.00
2019-06-26T07:24:25.095Z,5564.00
2019-06-26T07:25:25.205Z,5572.00
2019-06-26T07:26:25.322Z,5564.00
2019-06-26T07:27:25.424Z,5540.00
2019-06-26T07:28:25.532Z,5532.00
2019-06-26T07:29:25.645Z,5588.00
2019-06-26T07:30:25.755Z,5684.00
2019-06-26T07:31:25.863Z,5588.00
2019-06-26T07:32:25.974Z,5608.00
2019-06-26T07:33:26.101Z,5592.00
2019-06-26T07:34:26.192Z,5592.00
2019-06-26T07:35:26.305Z,5600.00
2019-06-26T07:36:26.494Z,5608.00
2019-06-26T07:37:26.507Z,5616.00
2019-06-26T07:38:26.611Z,5620.00
2019-06-26T07:39:26.718Z,5632.00
2019-06-26T07:40:26.832Z,5628.00
2019-06-26T07:41:26.944Z,5612.00
2019-06-26T07:44:10.118Z,5620.00
2019-06-26T07:45:10.221Z,5620.00
2019-06-26T07:46:10.320Z,5624.00
2019-06-26T07:47:22.565Z,5616.00
2019-06-26T07:48:10.529Z,5624.00
2019-06-26T07:49:10.629Z,5624.00
2019-06-26T07:50:10.831Z,5624.00
2019-06-26T07:51:10.830Z,5628.00
2019-06-26T07:52:10.934Z,5632.00
2019-06-26T07:53:11.052Z,5632.00
2019-06-26T07:54:11.182Z,5648.00
2019-06-26T07:55:12.389Z,5652.00
2019-06-26T07:56:11.359Z,5616.00
2019-06-26T07:57:11.463Z,5656.00
2019-06-26T07:58:11.564Z,5652.00
2019-06-26T07:59:11.662Z,5664.00
2019-06-26T08:00:11.779Z,5668.00
2019-06-26T08:01:11.871Z,5676.00
2019-06-26T08:02:11.969Z,5672.00
2019-06-26T08:03:12.080Z,5600.00
2019-06-26T08:04:12.217Z,5668.00
2019-06-26T08:05:12.283Z,5664.00
2019-06-26T08:06:12.390Z,5676.00
2019-06-26T08:07:12.493Z,5668.00
2019-06-26T08:08:14.746Z,5668.00
2019-06-26T08:09:12.699Z,5664.00
2019-06-26T08:10:12.793Z,5664.00
2019-06-26T08:11:12.899Z,5624.00
2019-06-26T08:12:13.007Z,5736.00
2019-06-26T08:13:13.142Z,5680.00
2019-06-26T08:14:13.200Z,5680.00
2019-06-26T08:15:13.309Z,5676.00
2019-06-26T08:16:13.417Z,5668.00
2019-06-26T08:17:13.553Z,5684.00
2019-06-26T08:18:13.610Z,5700.00
2019-06-26T08:19:13.714Z,5680.00
2019-06-26T08:20:13.826Z,5704.00
2019-06-26T08:21:13.932Z,5712.00
2019-06-26T08:22:14.042Z,5716.00
2019-06-26T08:23:14.140Z,5784.00
2019-06-26T08:24:14.257Z,5728.00
2019-06-26T08:25:14.350Z,5736.00
2019-06-26T08:26:14.462Z,5744.00
2019-06-26T08:27:14.560Z,5744.00
2019-06-26T08:28:14.667Z,5748.00
2019-06-26T08:29:14.772Z,5672.00
2019-06-26T08:30:14.874Z,5748.00
2019-06-26T08:31:14.983Z,5752.00
2019-06-26T08:32:15.087Z,5760.00
2019-06-26T08:33:15.191Z,5788.00
2019-06-26T08:34:15.303Z,5756.00
2019-06-26T08:35:15.474Z,5776.00
2019-06-26T08:36:15.517Z,5788.00
2019-06-26T08:37:15.619Z,5804.00
2019-06-26T08:38:15.938Z,5736.00
2019-06-26T08:39:15.819Z,5816.00
2019-06-26T08:40:15.940Z,5952.00
2019-06-26T08:41:16.041Z,5836.00
2019-06-26T08:42:16.142Z,5804.00
2019-06-26T08:43:16.249Z,5812.00
2019-06-26T08:44:16.359Z,5816.00
2019-06-26T08:45:16.462Z,5820.00
2019-06-26T08:46:16.573Z,5804.00
2019-06-26T08:47:16.681Z,5820.00
2019-06-26T08:48:34.723Z,5820.00
2019-06-26T08:49:25.767Z,5796.00
2019-06-26T08:50:16.957Z,5708.00
2019-06-26T08:51:17.039Z,5828.00
2019-06-26T08:52:17.159Z,5784.00
2019-06-26T08:53:17.249Z,5780.00
2019-06-26T08:54:17.389Z,5776.00
2019-06-26T08:55:17.462Z,5784.00
2019-06-26T08:56:17.610Z,5780.00
2019-06-26T08:57:17.677Z,5868.00
2019-06-26T08:58:17.781Z,5792.00
2019-06-26T08:59:17.884Z,5784.00
2019-06-26T09:00:18.448Z,5796.00
2019-06-26T09:01:18.150Z,5848.00
2019-06-26T09:02:18.280Z,5828.00
2019-06-26T09:03:18.398Z,5848.00
2019-06-26T09:04:18.494Z,5856.00
2019-06-26T09:05:18.604Z,5888.00
2019-06-26T09:06:18.708Z,6072.00
2019-06-26T09:07:18.818Z,6012.00
2019-06-26T09:08:19.041Z,6032.00
2019-06-26T09:09:19.028Z,6068.00
2019-06-26T09:10:19.131Z,6112.00
2019-06-26T09:11:19.235Z,6152.00
2019-06-26T09:12:19.338Z,6256.00
2019-06-26T09:13:19.443Z,6396.00
2019-06-26T09:14:19.553Z,6520.00
2019-06-26T09:15:19.685Z,6636.00
2019-06-26T09:16:19.773Z,6760.00
2019-06-26T09:17:19.868Z,6780.00
2019-06-26T09:18:34.477Z,6884.00
2019-06-26T09:19:20.102Z,7104.00
2019-06-26T09:20:20.198Z,7168.00
2019-06-26T09:21:20.305Z,7116.00
2019-06-26T09:22:20.416Z,7116.00
2019-06-26T09:23:20.518Z,7088.00
2019-06-26T09:24:20.630Z,7088.00
2019-06-26T09:25:22.552Z,6988.00
2019-06-26T09:26:20.855Z,7044.00
2019-06-26T09:27:20.961Z,6752.00
2019-06-26T09:28:21.068Z,6840.00
2019-06-26T09:29:23.827Z,6804.00
2019-06-26T09:30:21.288Z,6748.00
2019-06-26T09:31:21.398Z,6684.00
2019-06-26T09:32:21.505Z,6640.00
2019-06-26T09:33:21.616Z,6484.00
2019-06-26T09:34:21.718Z,6464.00
2019-06-26T09:35:21.838Z,6524.00
2019-06-26T09:36:21.940Z,6672.00
2019-06-26T09:37:22.048Z,6712.00
2019-06-26T09:38:22.155Z,6876.00
2019-06-26T09:39:22.263Z,6940.00
2019-06-26T09:40:22.374Z,6860.00
2019-06-26T09:41:22.473Z,6352.00
2019-06-26T09:42:22.574Z,7044.00
2019-06-26T09:43:22.678Z,6920.00
2019-06-26T09:44:22.791Z,6844.00
2019-06-26T09:45:22.900Z,6796.00
2019-06-26T09:46:23.006Z,6840.00
2019-06-26T09:47:23.124Z,6780.00
2019-06-26T09:48:23.230Z,6768.00
2019-06-26T09:49:23.339Z,6636.00
2019-06-26T09:50:23.447Z,6688.00
2019-06-26T09:51:23.558Z,6604.00
2019-06-26T09:52:23.667Z,4744.00
2019-06-26T09:53:23.776Z,6668.00
2019-06-26T09:54:23.883Z,6664.00
2019-06-26T09:55:24.007Z,6692.00
2019-06-26T09:56:24.107Z,6692.00
2019-06-26T09:57:24.213Z,4408.00
2019-06-26T09:58:24.319Z,4320.00
2019-06-26T09:59:24.444Z,4380.00
2019-06-26T10:00:24.546Z,5520.00
2019-06-26T10:01:24.678Z,6904.00
2019-06-26T10:02:24.776Z,7060.00
2019-06-26T10:03:24.910Z,7132.00
2019-06-26T10:04:24.995Z,7212.00
2019-06-26T10:05:25.229Z,7120.00
2019-06-26T10:06:25.225Z,7080.00
2019-06-26T10:07:25.325Z,7096.00
2019-06-26T10:08:25.433Z,7048.00
2019-06-26T10:09:25.541Z,7152.00
2019-06-26T10:10:25.655Z,7084.00
2019-06-26T10:11:25.765Z,7112.00
2019-06-26T10:12:25.879Z,7192.00
2019-06-26T10:13:25.984Z,7280.00
2019-06-26T10:14:41.056Z,7384.00
2019-06-26T10:15:26.199Z,7224.00
2019-06-26T10:16:26.309Z,7492.00
2019-06-26T10:17:26.449Z,7148.00
2019-06-26T10:18:26.541Z,7084.00
2019-06-26T10:19:26.664Z,6936.00
2019-06-26T10:20:26.755Z,6840.00
2019-06-26T10:21:26.866Z,6884.00
2019-06-26T10:22:26.982Z,6892.00
2019-06-26T10:23:27.081Z,7016.00
2019-06-26T10:24:27.190Z,6876.00
2019-06-26T10:25:27.335Z,6724.00
2019-06-26T10:26:27.410Z,6616.00
2019-06-26T10:27:27.519Z,6532.00
2019-06-26T10:28:27.626Z,6440.00
2019-06-26T10:29:27.733Z,6428.00
2019-06-26T10:30:27.844Z,6352.00
2019-06-26T10:31:27.949Z,6280.00
2019-06-26T10:32:28.060Z,6196.00
2019-06-26T10:33:28.167Z,6136.00
2019-06-26T10:34:28.269Z,6096.00
2019-06-26T10:35:28.386Z,6052.00
2019-06-26T10:36:28.492Z,6032.00
2019-06-26T10:37:28.597Z,6004.00
2019-06-26T10:38:28.710Z,5928.00
2019-06-26T10:39:28.813Z,5940.00
2019-06-26T10:40:28.922Z,5860.00
2019-06-26T10:41:29.040Z,5880.00
2019-06-26T10:42:29.146Z,5836.00
2019-06-26T10:43:29.265Z,5968.00
2019-06-26T10:44:29.386Z,5960.00
2019-06-26T10:45:29.499Z,5964.00
2019-06-26T10:46:29.577Z,5992.00
2019-06-26T10:47:29.725Z,5916.00
2019-06-26T10:48:29.826Z,5844.00
2019-06-26T10:49:29.913Z,5820.00
2019-06-26T10:50:30.023Z,5772.00
2019-06-26T10:51:30.124Z,5744.00
2019-06-26T10:52:30.233Z,5668.00
2019-06-26T10:53:30.349Z,5644.00
2019-06-26T10:54:30.467Z,5584.00
2019-06-26T10:55:30.571Z,5628.00
2019-06-26T10:56:30.674Z,5652.00
2019-06-26T10:57:30.786Z,5684.00
2019-06-26T10:58:30.899Z,5728.00
2019-06-26T10:59:31.019Z,5788.00
2019-06-26T11:00:31.112Z,5828.00
2019-06-26T11:01:31.214Z,5824.00
2019-06-26T11:02:31.324Z,5828.00
2019-06-26T11:03:31.431Z,5848.00
2019-06-26T11:04:31.544Z,5892.00
2019-06-26T11:05:31.649Z,5888.00
2019-06-26T11:06:31.758Z,5888.00
2019-06-26T11:07:31.906Z,5816.00
2019-06-26T11:08:32.269Z,5780.00
2019-06-26T11:09:32.141Z,5696.00
2019-06-26T11:10:32.248Z,5740.00
2019-06-26T11:11:32.358Z,5740.00
2019-06-26T11:12:32.448Z,5712.00
2019-06-26T11:13:32.575Z,5688.00
2019-06-26T11:14:32.695Z,5668.00
2019-06-26T11:15:32.780Z,5804.00
2019-06-26T11:16:32.894Z,5652.00
2019-06-26T11:17:33.010Z,5632.00
2019-06-26T11:18:33.113Z,5740.00
2019-06-26T11:19:43.300Z,5716.00
2019-06-26T11:20:33.360Z,5696.00
2019-06-26T11:21:33.481Z,6128.00
2019-06-26T11:22:33.586Z,5664.00
2019-06-26T11:23:33.708Z,5652.00
2019-06-26T11:24:33.812Z,5724.00
2019-06-26T11:25:33.923Z,5640.00
2019-06-26T11:26:34.030Z,5636.00
2019-06-26T11:27:34.144Z,5628.00
2019-06-26T11:28:34.248Z,5520.00
2019-06-26T11:29:34.364Z,5624.00
2019-06-26T11:30:34.470Z,5596.00
2019-06-26T11:31:34.584Z,5600.00
2019-06-26T11:32:34.687Z,5624.00
2019-06-26T11:33:34.796Z,5636.00
2019-06-26T11:34:34.903Z,5612.00
2019-06-26T11:35:35.010Z,5556.00
2019-06-26T11:36:35.128Z,5632.00
2019-06-26T11:37:35.232Z,5628.00
2019-06-26T11:38:35.339Z,5612.00
2019-06-26T11:39:35.454Z,5620.00
2019-06-26T11:40:35.562Z,5632.00
2019-06-26T11:41:35.693Z,5644.00
2019-06-26T11:42:35.802Z,5644.00
2019-06-26T11:43:35.904Z,5660.00
2019-06-26T11:44:36.005Z,5676.00
2019-06-26T11:45:36.126Z,5564.00
2019-06-26T11:46:37.126Z,5684.00
2019-06-26T11:47:36.368Z,5676.00
2019-06-26T11:48:36.465Z,5672.00
2019-06-26T11:49:36.547Z,5676.00
2019-06-26T11:50:36.662Z,5676.00
2019-06-26T11:51:36.774Z,5700.00
2019-06-26T11:52:36.876Z,5700.00
2019-06-26T11:53:37.006Z,5684.00
2019-06-26T11:54:37.112Z,5804.00
2019-06-26T11:55:37.206Z,5640.00
2019-06-26T11:56:37.321Z,5648.00
2019-06-26T11:57:37.459Z,5612.00
2019-06-26T11:58:37.546Z,5644.00
2019-06-26T11:59:37.662Z,5656.00
2019-06-26T12:00:41.487Z,5668.00
2019-06-26T12:01:37.853Z,5688.00
2019-06-26T12:05:10.124Z,5668.00
2019-06-26T12:06:18.198Z,5680.00
2019-06-26T12:07:10.311Z,5680.00
2019-06-26T12:08:10.414Z,5680.00
2019-06-26T12:09:10.548Z,5688.00
2019-06-26T12:10:10.786Z,5688.00
2019-06-26T12:11:10.773Z,5716.00
2019-06-26T12:12:10.885Z,5688.00
2019-06-26T12:13:10.990Z,5680.00
2019-06-26T12:14:11.099Z,5696.00
2019-06-26T12:15:11.214Z,5684.00
2019-06-26T12:16:11.320Z,5668.00
2019-06-26T12:17:11.428Z,5676.00
2019-06-26T12:18:11.536Z,5684.00
2019-06-26T12:19:11.648Z,5724.00
2019-06-26T12:20:18.721Z,5692.00
2019-06-26T12:21:11.872Z,5772.00
2019-06-26T12:22:11.982Z,5708.00
2019-06-26T12:23:12.097Z,5692.00
2019-06-26T12:24:12.200Z,5700.00
2019-06-26T12:25:12.305Z,5700.00
2019-06-26T12:26:27.187Z,5664.00
2019-06-26T12:27:12.560Z,5696.00